Time;durP1;ratioP1;P1;durP2;ratioP2;P2;SDS_P1;SDS_P2;PMS_P1;PMS_P2;Temp;Humidity;BMP_temperature;BMP_pressure;BME280_temperature;BME280_humidity;BME280_pressure;Samples;Min_cycle;Max_cycle;Signal;HPM_P1;HPM_P2
2023/09/25 00:01:08;;;;;;;15.10;6.60;;;;;;;16.83;100.00;100281.09;5103945;23;20047;-78
2023/09/25 00:03:38;;;;;;;10.98;6.30;;;;;;;16.84;100.00;100280.22;4970681;28;20042;-78
2023/09/25 00:06:17;;;;;;;12.25;6.28;;;;;;;16.79;100.00;100268.88;4962538;28;20131;-77
2023/09/25 00:08:46;;;;;;;9.40;6.53;;;;;;;16.84;100.00;100268.03;4968304;28;20724;-77
2023/09/25 00:11:14;;;;;;;11.68;6.90;;;;;;;16.81;100.00;100268.03;4971691;28;20039;-78
2023/09/25 00:13:42;;;;;;;15.27;7.15;;;;;;;16.82;100.00;100269.78;4965216;28;20480;-77
2023/09/25 00:16:14;;;;;;;12.23;7.15;;;;;;;16.81;100.00;100268.03;4964986;28;20051;-77
2023/09/25 00:18:43;;;;;;;12.20;7.03;;;;;;;16.78;100.00;100280.22;4964122;28;20090;-78
2023/09/25 00:21:13;;;;;;;13.48;6.88;;;;;;;16.76;100.00;100285.44;4972053;28;20050;-76
2023/09/25 00:23:41;;;;;;;13.05;7.18;;;;;;;16.74;100.00;100295.00;4964904;28;20047;-78
2023/09/25 00:26:12;;;;;;;14.95;7.88;;;;;;;16.74;100.00;100284.56;4967469;28;20051;-79
2023/09/25 00:28:41;;;;;;;17.90;7.90;;;;;;;16.75;100.00;100281.97;4971863;28;20050;-78
2023/09/25 00:31:09;;;;;;;11.93;6.93;;;;;;;16.77;100.00;100284.56;4971572;28;20127;-79
2023/09/25 00:33:38;;;;;;;11.93;7.13;;;;;;;16.76;100.00;100277.59;4971571;28;20699;-77
2023/09/25 00:36:20;;;;;;;12.95;7.28;;;;;;;16.76;100.00;100272.38;4967457;28;20054;-79
2023/09/25 00:38:49;;;;;;;10.73;7.90;;;;;;;16.75;100.00;100268.03;4965129;28;20198;-78
2023/09/25 00:41:18;;;;;;;14.40;7.53;;;;;;;16.74;100.00;100269.78;4966598;28;20419;-80
2023/09/25 00:43:47;;;;;;;14.02;6.90;;;;;;;16.73;100.00;100268.03;4969236;28;20050;-79
2023/09/25 00:46:16;;;;;;;15.80;8.32;;;;;;;16.73;100.00;100269.78;4962707;28;20126;-79
2023/09/25 00:48:46;;;;;;;12.93;6.90;;;;;;;16.73;100.00;100256.72;4966634;28;20082;-79
2023/09/25 00:51:16;;;;;;;12.50;7.28;;;;;;;16.71;100.00;100254.09;4966061;28;20069;-79
2023/09/25 00:53:47;;;;;;;10.85;6.40;;;;;;;16.71;100.00;100255.84;4968987;28;20058;-80
2023/09/25 00:56:17;;;;;;;14.18;7.90;;;;;;;16.69;100.00;100249.75;4967222;28;20054;-79
2023/09/25 00:58:46;;;;;;;12.57;6.88;;;;;;;16.68;100.00;100261.09;4965948;28;20062;-79
2023/09/25 01:01:15;;;;;;;12.73;7.38;;;;;;;16.68;100.00;100250.66;4963603;28;20065;-80
2023/09/25 01:03:44;;;;;;;13.02;7.95;;;;;;;16.67;100.00;100248.88;4967434;28;20055;-79
2023/09/25 01:06:13;;;;;;;11.30;6.75;;;;;;;16.67;100.00;100243.66;4968427;28;20051;-80
2023/09/25 01:08:43;;;;;;;12.52;6.88;;;;;;;16.66;100.00;100239.31;4967660;28;20090;-79
2023/09/25 01:11:12;;;;;;;12.35;7.30;;;;;;;16.64;100.00;100241.06;4968118;28;20054;-80
2023/09/25 01:13:41;;;;;;;11.82;6.85;;;;;;;16.55;100.00;100229.78;4965984;28;20047;-80
2023/09/25 01:16:10;;;;;;;13.00;7.18;;;;;;;16.61;100.00;100241.09;4968150;28;20051;-79
2023/09/25 01:18:39;;;;;;;10.75;6.18;;;;;;;16.60;100.00;100239.34;4967944;28;20111;-79
2023/09/25 01:21:13;;;;;;;10.85;6.50;;;;;;;16.59;100.00;100235.00;4968810;28;20055;-78
2023/09/25 01:23:43;;;;;;;12.52;6.68;;;;;;;16.57;100.00;100231.53;4970256;28;20182;-79
2023/09/25 01:26:12;;;;;;;9.20;6.20;;;;;;;16.55;100.00;100240.22;4966288;28;20114;-79
2023/09/25 01:28:40;;;;;;;11.93;7.20;;;;;;;16.52;100.00;100244.59;4965482;28;20070;-79
2023/09/25 01:31:09;;;;;;;12.13;7.20;;;;;;;16.52;100.00;100255.03;4966188;28;20055;-80
2023/09/25 01:33:38;;;;;;;12.48;7.20;;;;;;;16.48;100.00;100254.16;4967591;28;20051;-79
2023/09/25 01:36:09;;;;;;;12.35;6.53;;;;;;;16.50;100.00;100246.34;4966544;28;20051;-79
2023/09/25 01:38:37;;;;;;;12.73;6.95;;;;;;;16.48;100.00;100241.13;4967041;28;20513;-79
2023/09/25 01:41:07;;;;;;;10.77;7.15;;;;;;;16.46;100.00;100242.84;4964889;28;20097;-81
2023/09/25 01:43:36;;;;;;;14.02;6.70;;;;;;;16.44;100.00;100251.56;4967609;28;20047;-80
2023/09/25 01:46:04;;;;;;;11.90;6.25;;;;;;;16.43;100.00;100250.72;4966354;28;20058;-78
2023/09/25 01:48:33;;;;;;;11.18;6.25;;;;;;;16.43;100.00;100242.00;4968832;28;20566;-81
2023/09/25 01:51:01;;;;;;;9.85;6.70;;;;;;;16.43;100.00;100228.97;4958780;28;20043;-78
2023/09/25 01:53:30;;;;;;;12.32;6.15;;;;;;;16.36;100.00;100212.44;4963097;28;20047;-78
2023/09/25 01:56:01;;;;;;;12.18;6.45;;;;;;;16.38;100.00;100215.91;4964918;28;20066;-78
2023/09/25 01:58:31;;;;;;;8.10;5.65;;;;;;;16.36;100.00;100214.19;4966724;28;20109;-77
2023/09/25 02:01:00;;;;;;;9.48;6.15;;;;;;;16.32;100.00;100210.69;4964190;28;20566;-77
2023/09/25 02:03:29;;;;;;;10.65;7.10;;;;;;;16.30;100.00;100202.88;4945362;28;20416;-78
2023/09/25 02:06:00;;;;;;;11.10;6.45;;;;;;;16.29;100.00;100192.44;4950644;28;20051;-77
2023/09/25 02:08:29;;;;;;;11.23;6.80;;;;;;;16.25;100.00;100214.22;4944855;29;20050;-76
2023/09/25 02:10:58;;;;;;;11.18;7.10;;;;;;;16.23;100.00;100198.53;4946998;28;20062;-76
2023/09/25 02:13:26;;;;;;;12.40;6.47;;;;;;;16.21;100.00;100210.72;4951836;28;20054;-76
2023/09/25 02:15:57;;;;;;;12.57;6.55;;;;;;;16.23;100.00;100210.72;4952751;28;20059;-77
2023/09/25 02:18:26;;;;;;;12.45;6.57;;;;;;;16.18;100.00;100189.84;4945192;29;20047;-75
2023/09/25 02:20:54;;;;;;;12.70;6.93;;;;;;;16.24;100.00;100196.78;4944831;28;20050;-77
2023/09/25 02:23:23;;;;;;;12.02;5.88;;;;;;;16.25;100.00;100193.31;4944063;29;20052;-77
2023/09/25 02:25:51;;;;;;;13.65;7.03;;;;;;;16.24;100.00;100209.84;4945310;28;20062;-78
2023/09/25 02:28:20;;;;;;;12.43;7.03;;;;;;;16.24;100.00;100192.47;4947343;28;20511;-78
2023/09/25 02:30:49;;;;;;;16.00;8.07;;;;;;;16.24;100.00;100187.25;4946319;28;20055;-78
2023/09/25 02:33:19;;;;;;;11.25;7.28;;;;;;;16.23;100.00;100182.00;4942261;28;20074;-78
2023/09/25 02:35:48;;;;;;;14.65;7.43;;;;;;;16.22;100.00;100188.13;4943929;28;20090;-76
2023/09/25 02:38:16;;;;;;;13.45;7.30;;;;;;;16.21;100.00;100182.00;4946704;28;20139;-78
2023/09/25 02:40:45;;;;;;;11.93;6.88;;;;;;;16.18;100.00;100173.34;4945078;28;21228;-78
2023/09/25 02:43:14;;;;;;;13.27;7.10;;;;;;;16.13;100.00;100176.81;4947258;28;20102;-76
2023/09/25 02:45:43;;;;;;;12.05;6.95;;;;;;;16.11;100.00;100183.78;4948369;28;20537;-76
2023/09/25 02:48:11;;;;;;;16.17;8.65;;;;;;;16.12;100.00;100172.44;4952799;28;20682;-77
2023/09/25 02:50:42;;;;;;;14.95;7.85;;;;;;;16.14;100.00;100169.84;4951091;28;20488;-79
2023/09/25 02:53:10;;;;;;;16.95;8.30;;;;;;;16.13;100.00;100174.22;4955726;28;20051;-79
2023/09/25 02:55:40;;;;;;;16.48;8.15;;;;;;;16.13;100.00;100162.91;4948651;28;20055;-76
2023/09/25 02:58:08;;;;;;;13.38;7.05;;;;;;;16.13;100.00;100163.78;4945143;28;20571;-78
2023/09/25 03:00:42;;;;;;;15.00;8.07;;;;;;;16.10;100.00;100152.47;4946111;28;20055;-78
2023/09/25 03:03:10;;;;;;;13.02;6.78;;;;;;;16.12;100.00;100140.28;4964010;28;20133;-77
2023/09/25 03:05:44;;;;;;;14.15;7.72;;;;;;;16.09;100.00;100146.38;4971659;28;20066;-78
2023/09/25 03:08:13;;;;;;;13.57;7.75;;;;;;;16.07;100.00;100132.47;4971254;28;20116;-78
2023/09/25 03:10:41;;;;;;;16.05;8.60;;;;;;;16.06;100.00;100141.19;4972248;28;20652;-80
2023/09/25 03:13:10;;;;;;;15.82;7.70;;;;;;;16.05;100.00;100144.63;4974005;28;20038;-78
2023/09/25 03:15:38;;;;;;;16.85;8.90;;;;;;;16.03;100.00;100141.16;4974339;28;20046;-77
2023/09/25 03:18:07;;;;;;;13.52;7.95;;;;;;;16.05;100.00;100138.56;4962226;28;20073;-76
2023/09/25 03:20:36;;;;;;;14.05;7.85;;;;;;;16.04;100.00;100137.69;4962345;28;20051;-76
2023/09/25 03:23:06;;;;;;;14.88;7.28;;;;;;;16.09;100.00;100146.38;4956732;28;20563;-76
2023/09/25 03:25:36;;;;;;;13.35;7.25;;;;;;;16.09;100.00;100159.41;4967760;28;20050;-77
2023/09/25 03:28:07;;;;;;;12.85;8.00;;;;;;;16.10;100.00;100155.06;4966195;28;20054;-78
2023/09/25 03:30:36;;;;;;;15.30;8.45;;;;;;;16.11;100.00;100154.22;4963990;28;20062;-76
2023/09/25 03:33:05;;;;;;;13.07;7.22;;;;;;;16.13;100.00;100153.34;4972732;28;20528;-78
2023/09/25 03:35:34;;;;;;;14.52;7.43;;;;;;;16.15;100.00;100157.66;4966131;28;20055;-76
2023/09/25 03:38:02;;;;;;;13.85;8.23;;;;;;;16.16;100.00;100152.44;4970171;28;20465;-77
2023/09/25 03:40:35;;;;;;;16.77;7.43;;;;;;;16.16;100.00;100151.59;4963289;28;20054;-77
2023/09/25 03:43:03;;;;;;;16.05;7.43;;;;;;;16.13;100.00;100145.50;4969067;28;20051;-76
2023/09/25 03:45:32;;;;;;;11.68;6.95;;;;;;;16.13;100.00;100137.66;4969463;28;20105;-76
2023/09/25 03:48:00;;;;;;;12.68;7.55;;;;;;;16.13;100.00;100152.47;4957914;28;20055;-77
2023/09/25 03:50:29;;;;;;;11.68;6.85;;;;;;;16.10;100.00;100153.34;4961060;28;20487;-78
2023/09/25 03:53:00;;;;;;;13.68;7.43;;;;;;;16.10;100.00;100142.91;4968788;28;20081;-79
2023/09/25 03:55:29;;;;;;;13.90;7.45;;;;;;;16.10;100.00;100145.53;4965648;28;20043;-78
2023/09/25 03:57:59;;;;;;;11.85;7.88;;;;;;;16.10;100.00;100150.75;4958832;28;20065;-78
2023/09/25 04:00:28;;;;;;;14.13;7.85;;;;;;;16.09;100.00;100143.75;4969995;28;20692;-77
2023/09/25 04:02:59;;;;;;;14.18;7.72;;;;;;;16.11;100.00;100134.19;4970767;28;20066;-77
2023/09/25 04:05:28;;;;;;;14.75;8.07;;;;;;;16.11;100.00;100128.97;4966203;28;20051;-75
2023/09/25 04:07:56;;;;;;;13.10;6.65;;;;;;;16.10;100.00;100127.25;4964954;28;20047;-77
2023/09/25 04:10:27;;;;;;;13.63;8.25;;;;;;;16.10;100.00;100132.47;4966573;28;20086;-76
2023/09/25 04:12:55;;;;;;;13.13;7.40;;;;;;;16.11;100.00;100123.75;4959269;28;20050;-76
2023/09/25 04:15:27;;;;;;;17.67;7.90;;;;;;;16.12;100.00;100129.84;4972615;28;20051;-75
2023/09/25 04:17:57;;;;;;;16.13;8.32;;;;;;;16.11;100.00;100134.19;4963892;28;20047;-75
2023/09/25 04:20:26;;;;;;;16.60;8.13;;;;;;;16.09;100.00;100130.72;4962803;28;20443;-77
2023/09/25 04:22:56;;;;;;;18.02;8.82;;;;;;;16.10;100.00;100127.25;4965313;28;20074;-78
2023/09/25 04:25:27;;;;;;;13.90;7.50;;;;;;;16.08;100.00;100142.03;4967917;28;20054;-77
2023/09/25 04:27:57;;;;;;;15.60;8.05;;;;;;;16.07;100.00;100144.66;4968564;28;20825;-81
2023/09/25 04:30:27;;;;;;;11.40;7.47;;;;;;;16.06;100.00;100151.63;4976088;28;20051;-81
2023/09/25 04:32:56;;;;;;;11.55;7.05;;;;;;;16.10;100.00;100150.75;4959972;28;20058;-79
2023/09/25 04:35:25;;;;;;;12.88;7.20;;;;;;;16.08;100.00;100148.97;4972593;28;20141;-79
2023/09/25 04:37:55;;;;;;;12.25;7.15;;;;;;;16.09;100.00;100162.03;4971078;28;20059;-81
2023/09/25 04:40:30;;;;;;;14.90;7.78;;;;;;;16.10;100.00;100166.41;4969571;28;20051;-78
2023/09/25 04:43:00;;;;;;;14.00;7.22;;;;;;;16.10;100.00;100176.84;4968696;28;20210;-78
2023/09/25 04:45:31;;;;;;;13.73;8.20;;;;;;;16.10;100.00;100168.13;4967205;28;20075;-77
2023/09/25 04:48:00;;;;;;;13.57;6.43;;;;;;;16.08;100.00;100185.50;4968067;28;20130;-80
2023/09/25 04:50:28;;;;;;;13.80;7.53;;;;;;;16.10;100.00;100191.59;4970093;28;20055;-78
2023/09/25 04:52:57;;;;;;;13.02;7.15;;;;;;;16.09;100.00;100182.91;4968830;28;20047;-77
2023/09/25 04:55:26;;;;;;;13.50;7.28;;;;;;;16.11;100.00;100186.38;4972105;28;20058;-78
2023/09/25 04:57:54;;;;;;;10.80;6.30;;;;;;;16.11;100.00;100189.00;4965483;28;20523;-77
2023/09/25 05:00:24;;;;;;;14.00;7.15;;;;;;;16.10;100.00;100195.09;4967741;28;20501;-79
2023/09/25 05:02:55;;;;;;;13.93;7.28;;;;;;;16.09;100.00;100202.94;4973315;28;20706;-79
2023/09/25 05:05:25;;;;;;;16.33;7.72;;;;;;;16.09;100.00;100197.72;4962449;28;20111;-79
2023/09/25 05:07:55;;;;;;;14.50;7.03;;;;;;;16.08;100.00;100207.28;4970416;28;20047;-79
2023/09/25 05:10:25;;;;;;;11.60;6.68;;;;;;;16.05;100.00;100216.84;4976404;28;20050;-82
2023/09/25 05:12:54;;;;;;;12.82;7.20;;;;;;;16.03;100.00;100227.28;4970666;28;20054;-82
2023/09/25 05:15:25;;;;;;;12.18;7.15;;;;;;;16.03;100.00;100213.38;4987773;28;20039;-80
2023/09/25 05:17:57;;;;;;;14.70;7.07;;;;;;;16.03;100.00;100211.63;4967454;28;20169;-82
2023/09/25 05:20:26;;;;;;;14.48;7.90;;;;;;;16.02;100.00;100222.94;4976117;28;20043;-81
2023/09/25 05:22:56;;;;;;;10.57;6.20;;;;;;;16.02;100.00;100222.09;4976906;28;20529;-81
2023/09/25 05:25:25;;;;;;;11.63;6.75;;;;;;;16.00;100.00;100229.91;4977261;28;20054;-83
2023/09/25 05:27:58;;;;;;;14.13;7.57;;;;;;;15.91;100.00;100207.28;4965959;28;20141;-82
2023/09/25 05:30:27;;;;;;;12.43;7.05;;;;;;;15.99;100.00;100228.19;4969031;28;20480;-81
2023/09/25 05:32:57;;;;;;;10.95;6.93;;;;;;;16.00;100.00;100232.50;4967404;28;20122;-82
2023/09/25 05:35:26;;;;;;;12.15;6.60;;;;;;;16.02;100.00;100222.94;4969091;28;20118;-83
2023/09/25 05:37:54;;;;;;;11.20;6.53;;;;;;;16.04;100.00;100231.66;4958688;28;20530;-81
2023/09/25 05:40:24;;;;;;;13.80;7.07;;;;;;;16.05;100.00;100238.59;4969661;28;20043;-82
2023/09/25 05:42:53;;;;;;;12.95;6.93;;;;;;;16.01;100.00;100242.09;4961844;28;20142;-82
2023/09/25 05:45:22;;;;;;;11.52;6.80;;;;;;;16.00;100.00;100248.16;4964640;28;20051;-83
2023/09/25 05:47:50;;;;;;;15.77;6.72;;;;;;;15.98;100.00;100252.50;4968048;28;20134;-82
2023/09/25 05:50:20;;;;;;;11.50;6.57;;;;;;;15.97;100.00;100261.22;4974554;28;20050;-81
2023/09/25 05:52:49;;;;;;;14.02;7.20;;;;;;;15.92;100.00;100252.53;4970164;28;20065;-82
2023/09/25 05:55:17;;;;;;;15.60;8.90;;;;;;;15.96;100.00;100258.59;4967764;28;20050;-82
2023/09/25 05:57:46;;;;;;;11.95;5.60;;;;;;;15.96;100.00;100251.63;4970848;28;20054;-81
2023/09/25 06:00:18;;;;;;;11.75;7.20;;;;;;;15.96;100.00;100259.47;4976449;28;20058;-81
2023/09/25 06:02:49;;;;;;;15.05;7.90;;;;;;;15.94;100.00;100258.59;4982696;28;20054;-83
2023/09/25 06:05:19;;;;;;;14.68;7.38;;;;;;;15.95;100.00;100255.13;4976768;28;20456;-80
2023/09/25 06:07:48;;;;;;;13.30;7.00;;;;;;;15.93;100.00;100246.44;4977464;28;20058;-78
2023/09/25 06:10:18;;;;;;;9.70;6.85;;;;;;;15.94;100.00;100250.78;4970906;28;20507;-78
2023/09/25 06:12:47;;;;;;;12.80;6.28;;;;;;;15.93;100.00;100243.81;4972318;28;20213;-79
2023/09/25 06:15:16;;;;;;;17.98;7.32;;;;;;;15.92;100.00;100247.31;4971713;28;20062;-79
2023/09/25 06:17:44;;;;;;;14.48;6.55;;;;;;;15.92;100.00;100242.09;4969537;28;20043;-79
2023/09/25 06:20:16;;;;;;;12.88;6.82;;;;;;;15.91;100.00;100241.22;4971035;28;20058;-79
2023/09/25 06:22:52;;;;;;;17.73;7.22;;;;;;;15.93;100.00;100243.81;4967419;28;20061;-78
2023/09/25 06:25:21;;;;;;;13.50;7.28;;;;;;;15.94;100.00;100244.69;4970394;28;20085;-79
2023/09/25 06:27:49;;;;;;;14.88;7.38;;;;;;;15.95;100.00;100247.31;4966067;28;20047;-80
2023/09/25 06:30:19;;;;;;;12.75;6.72;;;;;;;15.96;100.00;100248.16;4978892;28;20053;-79
2023/09/25 06:32:48;;;;;;;13.75;7.38;;;;;;;15.96;100.00;100248.16;4970776;28;20059;-77
2023/09/25 06:35:18;;;;;;;12.23;7.00;;;;;;;15.94;100.00;100250.78;4975292;28;20078;-78
2023/09/25 06:37:48;;;;;;;11.85;6.88;;;;;;;15.93;100.00;100242.97;4970429;28;20119;-80
2023/09/25 06:40:19;;;;;;;10.80;7.22;;;;;;;15.92;100.00;100252.53;4975927;28;20043;-81
2023/09/25 06:42:47;;;;;;;12.45;7.03;;;;;;;15.86;100.00;100258.59;4968854;28;20047;-81
2023/09/25 06:45:16;;;;;;;15.00;8.15;;;;;;;15.85;100.00;100256.88;4971844;28;20602;-80
2023/09/25 06:47:47;;;;;;;11.80;6.80;;;;;;;15.85;100.00;100258.59;4967668;28;20066;-80
2023/09/25 06:50:16;;;;;;;11.43;6.78;;;;;;;15.84;100.00;100259.47;4972355;28;20066;-81
2023/09/25 06:52:45;;;;;;;14.55;7.85;;;;;;;15.84;100.00;100275.13;4962623;28;20519;-79
2023/09/25 06:55:15;;;;;;;13.00;7.72;;;;;;;15.83;100.00;100278.63;4971248;28;20051;-80
2023/09/25 06:57:43;;;;;;;18.30;7.63;;;;;;;15.82;100.00;100267.31;4973462;28;20047;-80
2023/09/25 07:00:13;;;;;;;14.25;7.35;;;;;;;15.76;100.00;100271.63;4968879;28;20058;-79
2023/09/25 07:02:43;;;;;;;13.77;7.70;;;;;;;15.74;100.00;100279.50;4973361;28;20070;-81
2023/09/25 07:05:11;;;;;;;19.25;8.15;;;;;;;15.75;100.00;100296.00;4967551;28;20047;-80
2023/09/25 07:07:40;;;;;;;12.40;8.07;;;;;;;15.75;100.00;100285.56;4968049;28;20054;-81
2023/09/25 07:10:09;;;;;;;15.07;7.95;;;;;;;15.74;100.00;100278.63;4965697;28;20086;-81
2023/09/25 07:12:40;;;;;;;16.67;8.27;;;;;;;15.70;100.00;100291.63;4967676;28;20480;-80
2023/09/25 07:15:09;;;;;;;16.08;7.80;;;;;;;15.71;100.00;100284.69;4964490;28;20098;-80
2023/09/25 07:17:38;;;;;;;15.20;8.70;;;;;;;15.66;100.00;100304.66;4965861;28;20047;-76
2023/09/25 07:20:08;;;;;;;19.33;9.20;;;;;;;15.63;100.00;100302.91;4965903;28;20051;-76
2023/09/25 07:22:37;;;;;;;18.38;8.98;;;;;;;15.63;100.00;100308.13;4971162;28;20119;-82
2023/09/25 07:25:06;;;;;;;18.17;9.32;;;;;;;15.66;100.00;100313.34;4974912;28;20051;-84
2023/09/25 07:27:35;;;;;;;15.57;8.65;;;;;;;15.64;100.00;100306.38;4966826;28;20126;-84
2023/09/25 07:30:07;;;;;;;16.38;8.80;;;;;;;15.66;100.00;100309.84;4966836;28;20109;-85
2023/09/25 07:32:37;;;;;;;19.08;8.63;;;;;;;15.68;100.00;100301.16;4968322;28;20039;-87
2023/09/25 07:35:09;;;;;;;16.38;8.07;;;;;;;15.72;100.00;100298.63;4966831;28;20703;-86
2023/09/25 07:37:39;;;;;;;14.27;8.77;;;;;;;15.75;100.00;100294.25;4967612;28;20043;-87
2023/09/25 07:40:11;;;;;;;14.63;8.00;;;;;;;15.77;100.00;100294.25;4969549;28;20113;-87
2023/09/25 07:42:43;;;;;;;16.63;8.98;;;;;;;15.79;100.00;100302.97;4968065;28;20054;-85
2023/09/25 07:45:22;;;;;;;16.23;9.25;;;;;;;15.80;100.00;100289.91;4971406;28;20047;-84
2023/09/25 07:47:52;;;;;;;17.48;9.35;;;;;;;15.80;100.00;100283.81;4968044;28;20078;-82
2023/09/25 07:50:24;;;;;;;21.88;9.90;;;;;;;15.81;100.00;100283.84;4969255;28;20053;-82
2023/09/25 07:52:54;;;;;;;16.05;9.45;;;;;;;15.82;100.00;100292.53;4965509;28;20063;-84
2023/09/25 07:55:26;;;;;;;22.73;9.75;;;;;;;15.83;100.00;100294.28;4974205;28;20058;-86
2023/09/25 07:57:55;;;;;;;18.63;9.82;;;;;;;15.83;100.00;100302.97;4972908;28;20290;-84
2023/09/25 08:00:29;;;;;;;19.15;9.02;;;;;;;15.83;100.00;100300.38;4973209;28;20051;-86
2023/09/25 08:02:57;;;;;;;16.08;8.68;;;;;;;15.81;100.00;100290.81;4972571;28;20149;-80
2023/09/25 08:05:28;;;;;;;17.83;9.77;;;;;;;15.79;100.00;100293.41;4970337;28;20051;-82
2023/09/25 08:07:56;;;;;;;15.38;9.43;;;;;;;15.79;100.00;100302.97;4961828;28;20039;-84
2023/09/25 08:10:27;;;;;;;16.60;10.35;;;;;;;15.71;100.00;100295.13;4964330;28;20047;-79
2023/09/25 08:12:56;;;;;;;20.48;10.25;;;;;;;15.77;100.00;100309.91;4963144;28;20578;-81
2023/09/25 08:15:27;;;;;;;16.92;9.55;;;;;;;15.64;100.00;100303.78;4965259;28;20098;-78
2023/09/25 08:17:55;;;;;;;18.00;9.70;;;;;;;15.62;100.00;100301.19;4968927;28;20051;-80
2023/09/25 08:20:26;;;;;;;19.42;9.15;;;;;;;15.62;100.00;100300.28;4966727;28;20125;-79
2023/09/25 08:22:56;;;;;;;19.90;9.50;;;;;;;15.59;100.00;100284.66;4969019;28;20054;-77
2023/09/25 08:25:25;;;;;;;17.42;9.00;;;;;;;15.58;100.00;100299.44;4964656;28;20109;-77
2023/09/25 08:27:54;;;;;;;17.52;9.68;;;;;;;15.55;100.00;100288.97;4968787;28;20047;-76
2023/09/25 08:30:23;;;;;;;16.13;9.27;;;;;;;15.56;100.00;100290.72;4968966;28;20054;-76
2023/09/25 08:32:53;;;;;;;17.48;8.77;;;;;;;15.57;100.00;100283.78;4973276;28;20532;-76
2023/09/25 08:35:22;;;;;;;18.23;8.88;;;;;;;15.58;100.00;100281.19;4965639;28;20086;-76
2023/09/25 08:37:51;;;;;;;18.60;10.20;;;;;;;15.58;100.00;100278.56;4967882;28;20066;-76
2023/09/25 08:40:20;;;;;;;16.77;8.82;;;;;;;15.60;100.00;100281.16;4968474;28;20074;-76
2023/09/25 08:42:51;;;;;;;17.63;9.13;;;;;;;15.61;100.00;100273.34;4963296;28;20062;-76
2023/09/25 08:45:22;;;;;;;15.10;8.77;;;;;;;15.61;100.00;100270.75;4965119;28;20046;-76
2023/09/25 08:47:53;;;;;;;16.25;8.75;;;;;;;15.61;100.00;100275.94;4967956;28;20142;-75
2023/09/25 08:50:24;;;;;;;17.02;9.07;;;;;;;15.63;100.00;100266.41;4968003;28;20050;-76
2023/09/25 08:52:55;;;;;;;15.75;8.63;;;;;;;15.62;100.00;100259.44;4965274;28;20055;-76
2023/09/25 08:55:25;;;;;;;17.63;8.30;;;;;;;15.61;100.00;100270.75;4969778;28;20575;-76
2023/09/25 08:57:54;;;;;;;14.40;8.20;;;;;;;15.63;100.00;100276.81;4969497;28;20055;-76
2023/09/25 09:00:24;;;;;;;17.50;9.07;;;;;;;15.61;100.00;100268.13;4966896;28;20047;-74
2023/09/25 09:02:55;;;;;;;14.52;8.25;;;;;;;15.64;100.00;100262.03;4968739;28;20058;-74
2023/09/25 09:05:24;;;;;;;14.57;8.60;;;;;;;15.64;100.00;100262.03;4973892;28;20043;-74
2023/09/25 09:08:01;;;;;;;17.13;8.93;;;;;;;15.64;100.00;100267.25;4963732;28;20051;-75
2023/09/25 09:10:33;;;;;;;15.80;8.77;;;;;;;15.65;100.00;100267.28;4966891;28;20051;-76
2023/09/25 09:13:07;;;;;;;17.92;10.38;;;;;;;15.65;100.00;100274.22;4965416;28;20120;-76
2023/09/25 09:15:35;;;;;;;17.40;9.07;;;;;;;15.66;100.00;100261.16;4968810;28;20114;-76
2023/09/25 09:18:20;;;;;;;17.88;8.95;;;;;;;15.66;100.00;100260.31;4966006;28;20046;-76
2023/09/25 09:20:49;;;;;;;15.85;8.57;;;;;;;15.69;100.00;100270.72;4968828;28;20158;-76
2023/09/25 09:23:17;;;;;;;15.38;8.30;;;;;;;15.72;100.00;100277.75;4965632;28;20058;-76
2023/09/25 09:25:49;;;;;;;16.80;9.00;;;;;;;15.73;100.00;100282.94;4971933;28;20134;-75
2023/09/25 09:28:17;;;;;;;18.58;9.32;;;;;;;15.72;100.00;100278.63;4971707;28;20054;-76
2023/09/25 09:30:46;;;;;;;16.98;9.45;;;;;;;15.75;100.00;100286.44;4967297;28;20408;-74
2023/09/25 09:33:16;;;;;;;16.33;8.65;;;;;;;15.74;100.00;100283.84;4966935;28;20175;-75
2023/09/25 09:35:45;;;;;;;16.02;8.30;;;;;;;15.73;100.00;100300.34;4964760;28;20051;-76
2023/09/25 09:38:18;;;;;;;13.90;8.18;;;;;;;15.71;100.00;100284.69;4965650;28;20047;-75
2023/09/25 09:40:47;;;;;;;14.98;8.75;;;;;;;15.75;100.00;100280.34;4962899;28;20497;-75
2023/09/25 09:43:16;;;;;;;18.45;9.13;;;;;;;15.75;100.00;100276.00;4967756;28;20050;-75
2023/09/25 09:45:46;;;;;;;17.73;9.10;;;;;;;15.76;100.00;100274.25;4966682;28;20121;-75
2023/09/25 09:48:20;;;;;;;18.63;9.80;;;;;;;15.76;100.00;100276.84;4969893;28;20141;-76
2023/09/25 09:50:52;;;;;;;15.75;9.05;;;;;;;15.70;100.00;100262.94;4964265;28;20066;-75
2023/09/25 09:53:20;;;;;;;;;;;;;;;15.75;100.00;100249.91;4968482;28;20288;-75
2023/09/25 09:55:48;;;;;;;15.25;9.57;;;;;;;15.76;100.00;100245.56;4967864;28;19930;-76
2023/09/25 09:58:18;;;;;;;15.65;9.43;;;;;;;15.76;100.00;100245.56;4965869;28;20054;-76
2023/09/25 10:00:47;;;;;;;14.38;9.18;;;;;;;15.76;100.00;100240.34;4962401;28;20801;-76
2023/09/25 10:03:17;;;;;;;16.65;9.02;;;;;;;15.71;100.00;100232.50;4965400;28;20062;-76
2023/09/25 10:05:47;;;;;;;14.30;9.07;;;;;;;15.75;100.00;100234.25;4967802;28;20047;-76
2023/09/25 10:08:16;;;;;;;18.27;9.40;;;;;;;15.77;100.00;100231.66;4966046;28;20057;-77
2023/09/25 10:10:50;;;;;;;20.27;10.02;;;;;;;15.72;100.00;100231.66;4963902;28;20137;-79
2023/09/25 10:13:24;;;;;;;16.30;8.60;;;;;;;15.72;100.00;100234.28;4966980;28;20066;-78
2023/09/25 10:15:55;;;;;;;18.00;9.52;;;;;;;15.73;100.00;100240.34;4962096;28;20093;-77
2023/09/25 10:18:31;;;;;;;16.90;9.60;;;;;;;15.72;100.00;100249.06;4965152;28;20528;-78
2023/09/25 10:21:08;;;;;;;15.07;7.93;;;;;;;15.66;100.00;100235.09;4966892;28;20082;-77
2023/09/25 10:23:40;;;;;;;19.05;9.20;;;;;;;15.72;100.00;100246.44;4971504;28;20066;-78
2023/09/25 10:26:18;;;;;;;15.82;9.20;;;;;;;15.71;100.00;100248.16;4965276;28;20600;-77
2023/09/25 10:28:47;;;;;;;14.77;9.27;;;;;;;15.74;100.00;100247.31;4969314;28;20051;-78
2023/09/25 10:31:24;;;;;;;15.43;8.38;;;;;;;15.71;100.00;100258.59;4963170;28;20052;-77
2023/09/25 10:34:01;;;;;;;19.90;9.98;;;;;;;15.72;100.00;100234.28;4966102;28;20055;-78
2023/09/25 10:36:39;;;;;;;14.27;9.18;;;;;;;15.72;100.00;100242.09;4962103;28;20520;-78
2023/09/25 10:39:09;;;;;;;16.42;9.13;;;;;;;15.70;100.00;100234.25;4968497;28;20062;-78
2023/09/25 10:41:52;;;;;;;15.40;8.75;;;;;;;15.68;100.00;100243.78;4961789;28;20155;-77
2023/09/25 10:44:21;;;;;;;17.33;8.93;;;;;;;15.69;100.00;100249.88;4965627;28;20452;-76
2023/09/25 10:46:52;;;;;;;16.88;9.48;;;;;;;15.70;100.00;100262.06;4965228;28;20712;-78
2023/09/25 10:49:23;;;;;;;16.45;8.45;;;;;;;15.68;100.00;100263.78;4962525;28;20071;-77
2023/09/25 10:51:53;;;;;;;16.92;9.77;;;;;;;15.66;100.00;100265.53;4964553;28;20047;-78
2023/09/25 10:54:22;;;;;;;16.05;9.60;;;;;;;15.67;100.00;100273.38;4964811;28;20058;-77
2023/09/25 10:56:53;;;;;;;18.65;9.18;;;;;;;15.64;100.00;100262.91;4970818;28;20050;-77
2023/09/25 10:59:22;;;;;;;18.90;9.95;;;;;;;15.67;100.00;100249.88;4968597;28;20050;-77
2023/09/25 11:01:51;;;;;;;15.32;9.07;;;;;;;15.66;100.00;100245.53;4966639;28;20078;-75
2023/09/25 11:04:21;;;;;;;17.30;9.35;;;;;;;15.67;100.00;100233.38;4965832;28;20106;-76
2023/09/25 11:06:51;;;;;;;16.30;9.13;;;;;;;15.68;100.00;100225.53;4961657;28;20168;-76
2023/09/25 11:09:20;;;;;;;14.70;8.85;;;;;;;15.69;100.00;100221.19;4964653;28;20532;-76
2023/09/25 11:11:49;;;;;;;17.23;9.30;;;;;;;15.64;100.00;100200.31;4967475;28;20117;-76
2023/09/25 11:14:18;;;;;;;13.68;8.90;;;;;;;15.68;100.00;100209.88;4967412;28;20141;-77
2023/09/25 11:16:47;;;;;;;16.38;9.15;;;;;;;15.69;100.00;100219.47;4967655;28;20074;-76
2023/09/25 11:19:17;;;;;;;15.90;8.75;;;;;;;15.67;100.00;100221.19;4966735;28;20056;-76
2023/09/25 11:21:50;;;;;;;14.75;8.63;;;;;;;15.68;100.00;100232.50;4961878;28;20512;-76